sensor_id;sensor_type;location;lat;lon;timestamp;P1;durP1;ratioP1;P2;durP2;ratioP2
3189;SDS011;1606;51.946;10.558;2023-07-29T00:02:00;6.73;;;2.97;;
3189;SDS011;1606;51.946;10.558;2023-07-29T00:04:28;5.80;;;2.40;;
3189;SDS011;1606;51.946;10.558;2023-07-29T00:06:56;5.60;;;1.80;;
3189;SDS011;1606;51.946;10.558;2023-07-29T00:09:25;6.00;;;2.60;;
3189;SDS011;1606;51.946;10.558;2023-07-29T00:11:53;6.17;;;2.10;;
3189;SDS011;1606;51.946;10.558;2023-07-29T00:14:21;5.60;;;2.17;;
3189;SDS011;1606;51.946;10.558;2023-07-29T00:16:49;6.07;;;1.97;;
3189;SDS011;1606;51.946;10.558;2023-07-29T00:19:17;5.53;;;2.07;;
3189;SDS011;1606;51.946;10.558;2023-07-29T00:21:46;5.60;;;2.13;;
3189;SDS011;1606;51.946;10.558;2023-07-29T00:24:14;6.43;;;2.10;;
3189;SDS011;1606;51.946;10.558;2023-07-29T00:26:43;7.30;;;2.40;;
3189;SDS011;1606;51.946;10.558;2023-07-29T00:29:11;5.97;;;2.30;;
3189;SDS011;1606;51.946;10.558;2023-07-29T00:31:39;6.20;;;2.50;;
3189;SDS011;1606;51.946;10.558;2023-07-29T00:34:07;5.90;;;2.27;;
3189;SDS011;1606;51.946;10.558;2023-07-29T00:36:35;6.30;;;1.90;;
3189;SDS011;1606;51.946;10.558;2023-07-29T00:39:03;6.23;;;2.13;;
3189;SDS011;1606;51.946;10.558;2023-07-29T00:41:31;9.47;;;2.30;;
3189;SDS011;1606;51.946;10.558;2023-07-29T00:44:00;6.00;;;2.40;;
3189;SDS011;1606;51.946;10.558;2023-07-29T00:46:28;5.70;;;2.20;;
3189;SDS011;1606;51.946;10.558;2023-07-29T00:48:56;5.37;;;1.90;;
3189;SDS011;1606;51.946;10.558;2023-07-29T00:51:24;5.53;;;2.03;;
3189;SDS011;1606;51.946;10.558;2023-07-29T00:53:52;5.73;;;2.07;;
3189;SDS011;1606;51.946;10.558;2023-07-29T00:56:20;7.33;;;2.10;;
3189;SDS011;1606;51.946;10.558;2023-07-29T00:58:49;8.33;;;2.10;;
3189;SDS011;1606;51.946;10.558;2023-07-29T01:01:19;6.27;;;2.20;;
3189;SDS011;1606;51.946;10.558;2023-07-29T01:03:47;5.90;;;1.87;;
3189;SDS011;1606;51.946;10.558;2023-07-29T01:06:16;5.97;;;2.00;;
3189;SDS011;1606;51.946;10.558;2023-07-29T01:08:51;5.80;;;2.00;;
3189;SDS011;1606;51.946;10.558;2023-07-29T01:11:29;5.60;;;1.97;;
3189;SDS011;1606;51.946;10.558;2023-07-29T01:14:09;6.80;;;2.13;;
3189;SDS011;1606;51.946;10.558;2023-07-29T01:16:49;6.17;;;1.97;;
3189;SDS011;1606;51.946;10.558;2023-07-29T01:19:29;11.00;;;2.10;;
3189;SDS011;1606;51.946;10.558;2023-07-29T01:22:10;10.13;;;3.03;;
3189;SDS011;1606;51.946;10.558;2023-07-29T01:24:42;7.17;;;2.70;;
3189;SDS011;1606;51.946;10.558;2023-07-29T01:27:09;9.17;;;1.80;;
3189;SDS011;1606;51.946;10.558;2023-07-29T01:29:37;6.60;;;2.00;;
3189;SDS011;1606;51.946;10.558;2023-07-29T01:32:07;7.17;;;2.00;;
3189;SDS011;1606;51.946;10.558;2023-07-29T01:34:39;6.20;;;2.30;;
3189;SDS011;1606;51.946;10.558;2023-07-29T01:37:12;5.80;;;2.33;;
3189;SDS011;1606;51.946;10.558;2023-07-29T01:39:48;5.77;;;1.83;;
3189;SDS011;1606;51.946;10.558;2023-07-29T01:42:18;6.70;;;2.73;;
3189;SDS011;1606;51.946;10.558;2023-07-29T01:44:46;6.10;;;1.80;;
3189;SDS011;1606;51.946;10.558;2023-07-29T01:47:14;7.10;;;2.40;;
3189;SDS011;1606;51.946;10.558;2023-07-29T01:49:42;6.00;;;2.00;;
3189;SDS011;1606;51.946;10.558;2023-07-29T01:52:10;5.70;;;2.07;;
3189;SDS011;1606;51.946;10.558;2023-07-29T01:54:38;6.73;;;2.30;;
3189;SDS011;1606;51.946;10.558;2023-07-29T01:57:07;7.30;;;2.40;;
3189;SDS011;1606;51.946;10.558;2023-07-29T01:59:35;6.70;;;1.87;;
3189;SDS011;1606;51.946;10.558;2023-07-29T02:02:03;5.90;;;1.80;;
3189;SDS011;1606;51.946;10.558;2023-07-29T02:04:31;6.30;;;2.60;;
3189;SDS011;1606;51.946;10.558;2023-07-29T02:06:59;5.90;;;2.23;;
3189;SDS011;1606;51.946;10.558;2023-07-29T02:09:27;6.00;;;2.07;;
3189;SDS011;1606;51.946;10.558;2023-07-29T02:11:57;6.03;;;2.13;;
3189;SDS011;1606;51.946;10.558;2023-07-29T02:14:26;7.93;;;2.20;;
3189;SDS011;1606;51.946;10.558;2023-07-29T02:16:54;6.40;;;2.43;;
3189;SDS011;1606;51.946;10.558;2023-07-29T02:19:22;7.50;;;2.60;;
3189;SDS011;1606;51.946;10.558;2023-07-29T02:21:50;6.27;;;2.90;;
3189;SDS011;1606;51.946;10.558;2023-07-29T02:24:18;7.90;;;2.23;;
3189;SDS011;1606;51.946;10.558;2023-07-29T02:26:46;8.63;;;2.13;;
3189;SDS011;1606;51.946;10.558;2023-07-29T02:29:14;7.03;;;2.43;;
3189;SDS011;1606;51.946;10.558;2023-07-29T02:31:43;5.77;;;2.00;;
3189;SDS011;1606;51.946;10.558;2023-07-29T02:34:11;6.03;;;2.03;;
3189;SDS011;1606;51.946;10.558;2023-07-29T02:36:39;6.10;;;2.00;;
3189;SDS011;1606;51.946;10.558;2023-07-29T02:39:07;6.00;;;2.23;;
3189;SDS011;1606;51.946;10.558;2023-07-29T02:41:35;6.47;;;2.30;;
3189;SDS011;1606;51.946;10.558;2023-07-29T02:44:03;6.07;;;2.17;;
3189;SDS011;1606;51.946;10.558;2023-07-29T02:46:32;6.37;;;2.47;;
3189;SDS011;1606;51.946;10.558;2023-07-29T02:49:02;7.53;;;2.37;;
3189;SDS011;1606;51.946;10.558;2023-07-29T02:51:31;7.90;;;2.30;;
3189;SDS011;1606;51.946;10.558;2023-07-29T02:53:59;9.40;;;2.60;;
3189;SDS011;1606;51.946;10.558;2023-07-29T02:56:26;6.73;;;2.60;;
3189;SDS011;1606;51.946;10.558;2023-07-29T02:58:54;7.60;;;2.63;;
3189;SDS011;1606;51.946;10.558;2023-07-29T03:01:22;8.13;;;2.37;;
3189;SDS011;1606;51.946;10.558;2023-07-29T03:03:51;6.93;;;2.30;;
3189;SDS011;1606;51.946;10.558;2023-07-29T03:06:21;7.17;;;2.47;;
3189;SDS011;1606;51.946;10.558;2023-07-29T03:08:50;6.87;;;2.63;;
3189;SDS011;1606;51.946;10.558;2023-07-29T03:11:18;6.23;;;2.73;;
3189;SDS011;1606;51.946;10.558;2023-07-29T03:13:46;6.43;;;2.53;;
3189;SDS011;1606;51.946;10.558;2023-07-29T03:16:14;6.50;;;2.40;;
3189;SDS011;1606;51.946;10.558;2023-07-29T03:18:43;6.63;;;2.57;;
3189;SDS011;1606;51.946;10.558;2023-07-29T03:21:11;6.47;;;2.33;;
3189;SDS011;1606;51.946;10.558;2023-07-29T03:23:41;7.23;;;2.47;;
3189;SDS011;1606;51.946;10.558;2023-07-29T03:26:09;6.77;;;2.03;;
3189;SDS011;1606;51.946;10.558;2023-07-29T03:28:37;7.00;;;3.00;;
3189;SDS011;1606;51.946;10.558;2023-07-29T03:31:07;7.07;;;2.67;;
3189;SDS011;1606;51.946;10.558;2023-07-29T03:33:35;6.77;;;2.30;;
3189;SDS011;1606;51.946;10.558;2023-07-29T03:36:04;11.60;;;2.80;;
3189;SDS011;1606;51.946;10.558;2023-07-29T03:38:32;7.23;;;2.70;;
3189;SDS011;1606;51.946;10.558;2023-07-29T03:41:03;6.53;;;2.40;;
3189;SDS011;1606;51.946;10.558;2023-07-29T03:43:30;5.70;;;2.10;;
3189;SDS011;1606;51.946;10.558;2023-07-29T03:45:59;8.90;;;2.60;;
3189;SDS011;1606;51.946;10.558;2023-07-29T03:48:27;6.37;;;2.20;;
3189;SDS011;1606;51.946;10.558;2023-07-29T03:50:55;6.33;;;2.70;;
3189;SDS011;1606;51.946;10.558;2023-07-29T03:53:23;10.93;;;2.60;;
3189;SDS011;1606;51.946;10.558;2023-07-29T03:55:51;9.37;;;2.90;;
3189;SDS011;1606;51.946;10.558;2023-07-29T03:58:20;10.63;;;3.03;;
3189;SDS011;1606;51.946;10.558;2023-07-29T04:00:48;6.63;;;2.80;;
3189;SDS011;1606;51.946;10.558;2023-07-29T04:03:16;7.37;;;2.60;;
3189;SDS011;1606;51.946;10.558;2023-07-29T04:05:44;9.87;;;3.03;;
3189;SDS011;1606;51.946;10.558;2023-07-29T04:08:12;6.20;;;2.17;;
3189;SDS011;1606;51.946;10.558;2023-07-29T04:10:40;9.30;;;2.90;;
3189;SDS011;1606;51.946;10.558;2023-07-29T04:13:08;6.20;;;2.40;;
3189;SDS011;1606;51.946;10.558;2023-07-29T04:15:37;7.20;;;2.40;;
3189;SDS011;1606;51.946;10.558;2023-07-29T04:18:05;9.13;;;3.40;;
3189;SDS011;1606;51.946;10.558;2023-07-29T04:20:33;9.30;;;2.07;;
3189;SDS011;1606;51.946;10.558;2023-07-29T04:23:01;6.40;;;2.47;;
3189;SDS011;1606;51.946;10.558;2023-07-29T04:25:29;6.47;;;2.70;;
3189;SDS011;1606;51.946;10.558;2023-07-29T04:27:57;7.30;;;2.70;;
3189;SDS011;1606;51.946;10.558;2023-07-29T04:30:25;6.30;;;1.87;;
3189;SDS011;1606;51.946;10.558;2023-07-29T04:32:54;11.63;;;2.80;;
3189;SDS011;1606;51.946;10.558;2023-07-29T04:35:22;7.73;;;2.93;;
3189;SDS011;1606;51.946;10.558;2023-07-29T04:37:50;6.80;;;2.47;;
3189;SDS011;1606;51.946;10.558;2023-07-29T04:40:18;8.77;;;2.67;;
3189;SDS011;1606;51.946;10.558;2023-07-29T04:42:46;6.27;;;2.40;;
3189;SDS011;1606;51.946;10.558;2023-07-29T04:45:14;6.83;;;2.77;;
3189;SDS011;1606;51.946;10.558;2023-07-29T04:47:42;6.17;;;2.20;;
3189;SDS011;1606;51.946;10.558;2023-07-29T04:50:11;6.20;;;2.10;;
3189;SDS011;1606;51.946;10.558;2023-07-29T04:52:39;6.37;;;1.80;;
3189;SDS011;1606;51.946;10.558;2023-07-29T04:55:07;6.37;;;2.47;;
3189;SDS011;1606;51.946;10.558;2023-07-29T04:57:36;6.60;;;2.30;;
3189;SDS011;1606;51.946;10.558;2023-07-29T05:00:04;6.50;;;2.70;;
3189;SDS011;1606;51.946;10.558;2023-07-29T05:02:33;6.23;;;2.27;;
3189;SDS011;1606;51.946;10.558;2023-07-29T05:05:01;6.40;;;2.30;;
3189;SDS011;1606;51.946;10.558;2023-07-29T05:07:31;6.17;;;2.57;;
3189;SDS011;1606;51.946;10.558;2023-07-29T05:09:59;6.33;;;2.40;;
3189;SDS011;1606;51.946;10.558;2023-07-29T05:12:27;7.50;;;2.00;;
3189;SDS011;1606;51.946;10.558;2023-07-29T05:14:55;6.00;;;2.20;;
3189;SDS011;1606;51.946;10.558;2023-07-29T05:17:23;5.70;;;2.00;;
3189;SDS011;1606;51.946;10.558;2023-07-29T05:19:52;6.57;;;1.80;;
3189;SDS011;1606;51.946;10.558;2023-07-29T05:22:19;6.03;;;1.70;;
3189;SDS011;1606;51.946;10.558;2023-07-29T05:24:49;6.40;;;2.27;;
3189;SDS011;1606;51.946;10.558;2023-07-29T05:27:17;7.13;;;1.70;;
3189;SDS011;1606;51.946;10.558;2023-07-29T05:29:45;7.90;;;2.00;;
3189;SDS011;1606;51.946;10.558;2023-07-29T05:32:12;5.50;;;1.70;;
3189;SDS011;1606;51.946;10.558;2023-07-29T05:34:40;5.70;;;1.67;;
3189;SDS011;1606;51.946;10.558;2023-07-29T05:37:08;6.90;;;1.67;;
3189;SDS011;1606;51.946;10.558;2023-07-29T05:39:36;5.80;;;1.60;;
3189;SDS011;1606;51.946;10.558;2023-07-29T05:42:06;7.00;;;2.53;;
3189;SDS011;1606;51.946;10.558;2023-07-29T05:44:34;6.10;;;1.73;;
3189;SDS011;1606;51.946;10.558;2023-07-29T05:47:02;7.97;;;2.10;;
3189;SDS011;1606;51.946;10.558;2023-07-29T05:49:30;8.87;;;2.30;;
3189;SDS011;1606;51.946;10.558;2023-07-29T05:51:58;8.13;;;2.13;;
3189;SDS011;1606;51.946;10.558;2023-07-29T05:54:26;8.10;;;2.40;;
3189;SDS011;1606;51.946;10.558;2023-07-29T05:56:54;6.90;;;2.73;;
3189;SDS011;1606;51.946;10.558;2023-07-29T05:59:23;9.87;;;3.10;;
3189;SDS011;1606;51.946;10.558;2023-07-29T06:01:51;10.80;;;2.53;;
3189;SDS011;1606;51.946;10.558;2023-07-29T06:04:19;9.63;;;2.80;;
3189;SDS011;1606;51.946;10.558;2023-07-29T06:06:47;7.60;;;3.00;;
3189;SDS011;1606;51.946;10.558;2023-07-29T06:09:15;8.10;;;2.80;;
3189;SDS011;1606;51.946;10.558;2023-07-29T06:11:43;7.40;;;2.50;;
3189;SDS011;1606;51.946;10.558;2023-07-29T06:14:10;6.30;;;2.50;;
3189;SDS011;1606;51.946;10.558;2023-07-29T06:16:40;7.70;;;2.60;;
3189;SDS011;1606;51.946;10.558;2023-07-29T06:19:08;8.83;;;2.50;;
3189;SDS011;1606;51.946;10.558;2023-07-29T06:21:36;7.00;;;2.07;;
3189;SDS011;1606;51.946;10.558;2023-07-29T06:24:04;10.70;;;2.50;;
3189;SDS011;1606;51.946;10.558;2023-07-29T06:26:35;7.03;;;3.17;;
3189;SDS011;1606;51.946;10.558;2023-07-29T06:29:04;7.77;;;2.63;;
3189;SDS011;1606;51.946;10.558;2023-07-29T06:31:32;6.23;;;2.20;;
3189;SDS011;1606;51.946;10.558;2023-07-29T06:34:01;8.40;;;2.93;;
3189;SDS011;1606;51.946;10.558;2023-07-29T06:36:29;7.13;;;2.77;;
3189;SDS011;1606;51.946;10.558;2023-07-29T06:38:57;8.90;;;2.80;;
3189;SDS011;1606;51.946;10.558;2023-07-29T06:41:24;6.33;;;2.40;;
3189;SDS011;1606;51.946;10.558;2023-07-29T06:43:52;6.10;;;2.20;;
3189;SDS011;1606;51.946;10.558;2023-07-29T06:46:20;8.43;;;2.80;;
3189;SDS011;1606;51.946;10.558;2023-07-29T06:48:48;9.77;;;3.27;;
3189;SDS011;1606;51.946;10.558;2023-07-29T06:51:17;10.23;;;2.87;;
3189;SDS011;1606;51.946;10.558;2023-07-29T06:53:45;10.53;;;2.03;;
3189;SDS011;1606;51.946;10.558;2023-07-29T06:56:13;6.23;;;1.53;;
3189;SDS011;1606;51.946;10.558;2023-07-29T06:58:41;7.30;;;1.53;;
3189;SDS011;1606;51.946;10.558;2023-07-29T07:01:09;6.33;;;1.00;;
3189;SDS011;1606;51.946;10.558;2023-07-29T07:03:37;6.70;;;0.90;;
3189;SDS011;1606;51.946;10.558;2023-07-29T07:06:05;6.27;;;1.30;;
3189;SDS011;1606;51.946;10.558;2023-07-29T07:08:34;6.37;;;1.27;;
3189;SDS011;1606;51.946;10.558;2023-07-29T07:11:02;6.00;;;1.60;;
3189;SDS011;1606;51.946;10.558;2023-07-29T07:13:30;8.00;;;1.73;;
3189;SDS011;1606;51.946;10.558;2023-07-29T07:15:58;5.60;;;1.53;;
3189;SDS011;1606;51.946;10.558;2023-07-29T07:18:26;6.73;;;1.63;;
3189;SDS011;1606;51.946;10.558;2023-07-29T07:20:54;7.40;;;1.57;;
3189;SDS011;1606;51.946;10.558;2023-07-29T07:23:22;7.27;;;1.50;;
3189;SDS011;1606;51.946;10.558;2023-07-29T07:25:51;7.70;;;1.80;;
3189;SDS011;1606;51.946;10.558;2023-07-29T07:28:19;7.30;;;1.80;;
3189;SDS011;1606;51.946;10.558;2023-07-29T07:30:49;6.20;;;1.73;;
3189;SDS011;1606;51.946;10.558;2023-07-29T07:33:20;7.07;;;2.00;;
3189;SDS011;1606;51.946;10.558;2023-07-29T07:36:01;6.33;;;1.70;;
3189;SDS011;1606;51.946;10.558;2023-07-29T07:38:37;8.23;;;2.20;;
3189;SDS011;1606;51.946;10.558;2023-07-29T07:41:11;8.43;;;1.60;;
3189;SDS011;1606;51.946;10.558;2023-07-29T07:43:44;9.93;;;1.60;;
3189;SDS011;1606;51.946;10.558;2023-07-29T07:46:15;6.00;;;1.80;;
3189;SDS011;1606;51.946;10.558;2023-07-29T07:48:43;6.10;;;1.90;;
3189;SDS011;1606;51.946;10.558;2023-07-29T07:51:16;6.10;;;1.93;;
3189;SDS011;1606;51.946;10.558;2023-07-29T07:53:48;5.93;;;1.80;;
3189;SDS011;1606;51.946;10.558;2023-07-29T07:56:19;6.87;;;1.50;;
3189;SDS011;1606;51.946;10.558;2023-07-29T07:58:49;7.60;;;1.57;;
3189;SDS011;1606;51.946;10.558;2023-07-29T08:01:38;7.63;;;1.73;;
3189;SDS011;1606;51.946;10.558;2023-07-29T08:04:12;7.60;;;1.40;;
3189;SDS011;1606;51.946;10.558;2023-07-29T08:06:50;5.47;;;1.40;;
3189;SDS011;1606;51.946;10.558;2023-07-29T08:09:18;7.80;;;1.70;;
3189;SDS011;1606;51.946;10.558;2023-07-29T08:11:51;5.20;;;1.10;;
3189;SDS011;1606;51.946;10.558;2023-07-29T08:14:28;7.20;;;1.20;;
3189;SDS011;1606;51.946;10.558;2023-07-29T08:17:06;6.33;;;1.30;;
3189;SDS011;1606;51.946;10.558;2023-07-29T08:19:42;5.87;;;1.30;;
3189;SDS011;1606;51.946;10.558;2023-07-29T08:25:39;5.50;;;1.27;;
3189;SDS011;1606;51.946;10.558;2023-07-29T08:28:35;6.27;;;1.37;;
3189;SDS011;1606;51.946;10.558;2023-07-29T08:31:09;6.30;;;1.30;;
3189;SDS011;1606;51.946;10.558;2023-07-29T08:33:51;5.63;;;1.10;;
3189;SDS011;1606;51.946;10.558;2023-07-29T08:36:38;7.40;;;1.50;;
3189;SDS011;1606;51.946;10.558;2023-07-29T08:39:14;5.10;;;1.10;;
3189;SDS011;1606;51.946;10.558;2023-07-29T08:42:00;6.50;;;1.77;;
3189;SDS011;1606;51.946;10.558;2023-07-29T08:44:41;5.80;;;1.60;;
3189;SDS011;1606;51.946;10.558;2023-07-29T08:47:20;5.60;;;1.63;;
3189;SDS011;1606;51.946;10.558;2023-07-29T08:50:08;5.90;;;1.43;;
3189;SDS011;1606;51.946;10.558;2023-07-29T08:53:06;7.40;;;1.23;;
3189;SDS011;1606;51.946;10.558;2023-07-29T08:55:41;7.77;;;1.47;;
3189;SDS011;1606;51.946;10.558;2023-07-29T08:58:19;7.00;;;1.70;;
3189;SDS011;1606;51.946;10.558;2023-07-29T09:01:06;7.65;;;1.40;;
3189;SDS011;1606;51.946;10.558;2023-07-29T09:03:36;6.47;;;1.67;;
3189;SDS011;1606;51.946;10.558;2023-07-29T09:06:09;5.37;;;1.30;;
3189;SDS011;1606;51.946;10.558;2023-07-29T09:08:51;6.23;;;1.60;;
3189;SDS011;1606;51.946;10.558;2023-07-29T09:11:32;6.13;;;2.00;;
3189;SDS011;1606;51.946;10.558;2023-07-29T09:14:28;5.77;;;1.70;;
3189;SDS011;1606;51.946;10.558;2023-07-29T09:17:03;6.10;;;1.43;;
3189;SDS011;1606;51.946;10.558;2023-07-29T09:19:54;6.00;;;1.67;;
3189;SDS011;1606;51.946;10.558;2023-07-29T09:23:07;6.00;;;1.73;;
3189;SDS011;1606;51.946;10.558;2023-07-29T09:25:52;6.00;;;2.03;;
3189;SDS011;1606;51.946;10.558;2023-07-29T09:28:33;6.60;;;1.90;;
3189;SDS011;1606;51.946;10.558;2023-07-29T09:31:10;6.00;;;2.03;;
3189;SDS011;1606;51.946;10.558;2023-07-29T09:33:58;9.43;;;1.90;;
3189;SDS011;1606;51.946;10.558;2023-07-29T09:36:34;8.20;;;2.20;;
3189;SDS011;1606;51.946;10.558;2023-07-29T09:39:13;7.03;;;2.60;;
3189;SDS011;1606;51.946;10.558;2023-07-29T09:41:50;6.57;;;2.67;;
3189;SDS011;1606;51.946;10.558;2023-07-29T09:44:32;6.50;;;2.20;;
3189;SDS011;1606;51.946;10.558;2023-07-29T09:47:06;6.53;;;2.43;;
3189;SDS011;1606;51.946;10.558;2023-07-29T09:49:46;7.40;;;2.40;;
3189;SDS011;1606;51.946;10.558;2023-07-29T09:52:22;8.10;;;2.30;;
3189;SDS011;1606;51.946;10.558;2023-07-29T09:55:10;6.60;;;2.80;;
3189;SDS011;1606;51.946;10.558;2023-07-29T09:57:52;7.10;;;2.80;;
3189;SDS011;1606;51.946;10.558;2023-07-29T10:00:26;6.70;;;2.90;;
3189;SDS011;1606;51.946;10.558;2023-07-29T10:03:01;7.73;;;3.20;;
3189;SDS011;1606;51.946;10.558;2023-07-29T10:05:39;7.80;;;3.30;;
3189;SDS011;1606;51.946;10.558;2023-07-29T10:08:17;7.73;;;2.90;;
3189;SDS011;1606;51.946;10.558;2023-07-29T10:10:58;6.80;;;2.80;;
3189;SDS011;1606;51.946;10.558;2023-07-29T10:13:29;6.03;;;2.33;;
3189;SDS011;1606;51.946;10.558;2023-07-29T10:16:09;7.27;;;2.77;;
3189;SDS011;1606;51.946;10.558;2023-07-29T10:18:44;7.10;;;3.20;;
3189;SDS011;1606;51.946;10.558;2023-07-29T10:21:25;6.97;;;2.63;;
3189;SDS011;1606;51.946;10.558;2023-07-29T10:24:00;8.43;;;2.83;;
3189;SDS011;1606;51.946;10.558;2023-07-29T10:26:32;6.63;;;2.67;;
3189;SDS011;1606;51.946;10.558;2023-07-29T10:29:21;7.63;;;3.50;;
3189;SDS011;1606;51.946;10.558;2023-07-29T10:31:57;7.30;;;3.20;;
3189;SDS011;1606;51.946;10.558;2023-07-29T10:34:35;6.63;;;2.50;;
3189;SDS011;1606;51.946;10.558;2023-07-29T10:37:10;7.80;;;3.13;;
3189;SDS011;1606;51.946;10.558;2023-07-29T10:39:54;7.13;;;2.67;;
3189;SDS011;1606;51.946;10.558;2023-07-29T10:42:33;6.57;;;2.60;;
3189;SDS011;1606;51.946;10.558;2023-07-29T10:47:50;6.83;;;2.60;;
3189;SDS011;1606;51.946;10.558;2023-07-29T10:50:34;6.10;;;2.77;;
3189;SDS011;1606;51.946;10.558;2023-07-29T10:53:11;6.40;;;2.97;;
3189;SDS011;1606;51.946;10.558;2023-07-29T10:55:46;6.40;;;3.10;;
3189;SDS011;1606;51.946;10.558;2023-07-29T10:58:25;6.47;;;3.03;;
3189;SDS011;1606;51.946;10.558;2023-07-29T11:01:05;7.67;;;2.70;;
3189;SDS011;1606;51.946;10.558;2023-07-29T11:04:28;6.13;;;2.90;;
3189;SDS011;1606;51.946;10.558;2023-07-29T11:07:19;5.87;;;2.90;;
3189;SDS011;1606;51.946;10.558;2023-07-29T11:10:01;6.20;;;2.80;;
3189;SDS011;1606;51.946;10.558;2023-07-29T11:15:21;6.87;;;3.33;;
3189;SDS011;1606;51.946;10.558;2023-07-29T11:17:54;7.43;;;3.80;;
3189;SDS011;1606;51.946;10.558;2023-07-29T11:20:25;6.80;;;2.90;;
3189;SDS011;1606;51.946;10.558;2023-07-29T11:23:09;6.80;;;3.60;;
3189;SDS011;1606;51.946;10.558;2023-07-29T11:25:46;6.70;;;3.10;;
3189;SDS011;1606;51.946;10.558;2023-07-29T11:28:20;7.37;;;3.83;;
3189;SDS011;1606;51.946;10.558;2023-07-29T11:30:52;9.10;;;4.30;;
3189;SDS011;1606;51.946;10.558;2023-07-29T11:33:29;11.60;;;5.13;;
3189;SDS011;1606;51.946;10.558;2023-07-29T11:36:00;8.03;;;4.77;;
3189;SDS011;1606;51.946;10.558;2023-07-29T11:38:33;8.10;;;4.73;;
3189;SDS011;1606;51.946;10.558;2023-07-29T11:41:20;10.47;;;3.90;;
3189;SDS011;1606;51.946;10.558;2023-07-29T11:43:52;7.57;;;3.80;;
3189;SDS011;1606;51.946;10.558;2023-07-29T11:46:27;11.50;;;5.83;;
3189;SDS011;1606;51.946;10.558;2023-07-29T11:49:03;8.40;;;4.60;;
3189;SDS011;1606;51.946;10.558;2023-07-29T11:51:41;7.90;;;4.60;;
3189;SDS011;1606;51.946;10.558;2023-07-29T11:54:15;8.20;;;4.60;;
3189;SDS011;1606;51.946;10.558;2023-07-29T11:57:00;9.10;;;4.70;;
3189;SDS011;1606;51.946;10.558;2023-07-29T11:59:35;7.83;;;5.17;;
3189;SDS011;1606;51.946;10.558;2023-07-29T12:02:08;8.93;;;5.30;;
3189;SDS011;1606;51.946;10.558;2023-07-29T12:04:43;8.80;;;5.60;;
3189;SDS011;1606;51.946;10.558;2023-07-29T12:07:20;8.20;;;5.37;;
3189;SDS011;1606;51.946;10.558;2023-07-29T12:09:52;10.53;;;5.53;;
3189;SDS011;1606;51.946;10.558;2023-07-29T12:12:23;8.30;;;5.20;;
3189;SDS011;1606;51.946;10.558;2023-07-29T12:14:53;9.50;;;5.93;;
3189;SDS011;1606;51.946;10.558;2023-07-29T12:17:24;10.43;;;5.40;;
3189;SDS011;1606;51.946;10.558;2023-07-29T12:20:01;8.30;;;5.60;;
3189;SDS011;1606;51.946;10.558;2023-07-29T12:22:35;9.10;;;5.60;;
3189;SDS011;1606;51.946;10.558;2023-07-29T12:25:10;7.83;;;4.90;;
3189;SDS011;1606;51.946;10.558;2023-07-29T12:27:47;7.60;;;4.90;;
3189;SDS011;1606;51.946;10.558;2023-07-29T12:30:19;8.83;;;4.43;;
3189;SDS011;1606;51.946;10.558;2023-07-29T12:32:49;7.53;;;4.53;;
3189;SDS011;1606;51.946;10.558;2023-07-29T12:35:22;10.90;;;4.70;;
3189;SDS011;1606;51.946;10.558;2023-07-29T12:38:04;8.07;;;4.27;;
3189;SDS011;1606;51.946;10.558;2023-07-29T12:40:38;9.00;;;5.50;;
3189;SDS011;1606;51.946;10.558;2023-07-29T12:43:15;10.00;;;5.87;;
3189;SDS011;1606;51.946;10.558;2023-07-29T12:45:49;8.70;;;5.10;;
3189;SDS011;1606;51.946;10.558;2023-07-29T12:48:22;8.70;;;6.30;;
3189;SDS011;1606;51.946;10.558;2023-07-29T12:50:53;8.37;;;5.93;;
3189;SDS011;1606;51.946;10.558;2023-07-29T12:53:28;7.50;;;5.17;;
3189;SDS011;1606;51.946;10.558;2023-07-29T12:55:57;8.50;;;5.63;;
3189;SDS011;1606;51.946;10.558;2023-07-29T12:58:30;11.43;;;5.93;;
3189;SDS011;1606;51.946;10.558;2023-07-29T13:00:59;9.10;;;5.70;;
3189;SDS011;1606;51.946;10.558;2023-07-29T13:03:28;7.20;;;5.00;;
3189;SDS011;1606;51.946;10.558;2023-07-29T13:06:02;7.57;;;5.00;;
3189;SDS011;1606;51.946;10.558;2023-07-29T13:08:35;7.27;;;4.23;;
3189;SDS011;1606;51.946;10.558;2023-07-29T13:11:06;8.10;;;4.40;;
3189;SDS011;1606;51.946;10.558;2023-07-29T13:13:37;7.50;;;4.05;;
3189;SDS011;1606;51.946;10.558;2023-07-29T13:16:06;8.93;;;4.27;;
3189;SDS011;1606;51.946;10.558;2023-07-29T13:18:35;7.00;;;3.77;;
3189;SDS011;1606;51.946;10.558;2023-07-29T13:21:08;8.13;;;3.80;;
3189;SDS011;1606;51.946;10.558;2023-07-29T13:23:40;7.37;;;4.03;;
3189;SDS011;1606;51.946;10.558;2023-07-29T13:26:12;6.80;;;3.30;;
3189;SDS011;1606;51.946;10.558;2023-07-29T13:28:44;7.90;;;3.53;;
3189;SDS011;1606;51.946;10.558;2023-07-29T13:31:13;7.43;;;3.83;;
3189;SDS011;1606;51.946;10.558;2023-07-29T13:33:46;6.80;;;3.03;;
3189;SDS011;1606;51.946;10.558;2023-07-29T13:36:21;6.20;;;2.80;;
3189;SDS011;1606;51.946;10.558;2023-07-29T13:38:57;6.40;;;2.97;;
3189;SDS011;1606;51.946;10.558;2023-07-29T13:41:26;6.53;;;2.70;;
3189;SDS011;1606;51.946;10.558;2023-07-29T13:44:01;7.47;;;3.00;;
3189;SDS011;1606;51.946;10.558;2023-07-29T13:46:32;6.10;;;2.47;;
3189;SDS011;1606;51.946;10.558;2023-07-29T13:49:02;6.60;;;2.60;;
3189;SDS011;1606;51.946;10.558;2023-07-29T13:51:33;6.20;;;2.30;;
3189;SDS011;1606;51.946;10.558;2023-07-29T13:54:06;6.43;;;2.90;;
3189;SDS011;1606;51.946;10.558;2023-07-29T13:56:39;5.57;;;1.83;;
3189;SDS011;1606;51.946;10.558;2023-07-29T13:59:09;6.63;;;2.50;;
3189;SDS011;1606;51.946;10.558;2023-07-29T14:01:44;6.13;;;1.87;;
3189;SDS011;1606;51.946;10.558;2023-07-29T14:04:24;6.63;;;2.00;;
3189;SDS011;1606;51.946;10.558;2023-07-29T14:06:57;7.93;;;1.90;;
3189;SDS011;1606;51.946;10.558;2023-07-29T14:09:35;5.80;;;1.83;;
3189;SDS011;1606;51.946;10.558;2023-07-29T14:12:07;5.70;;;1.60;;
3189;SDS011;1606;51.946;10.558;2023-07-29T14:14:43;6.50;;;1.97;;
3189;SDS011;1606;51.946;10.558;2023-07-29T14:17:16;6.90;;;2.23;;
3189;SDS011;1606;51.946;10.558;2023-07-29T14:19:46;7.40;;;1.80;;
3189;SDS011;1606;51.946;10.558;2023-07-29T14:22:15;5.53;;;1.70;;
3189;SDS011;1606;51.946;10.558;2023-07-29T14:24:48;9.00;;;1.77;;
3189;SDS011;1606;51.946;10.558;2023-07-29T14:27:30;5.87;;;1.97;;
3189;SDS011;1606;51.946;10.558;2023-07-29T14:30:04;5.80;;;1.80;;
3189;SDS011;1606;51.946;10.558;2023-07-29T14:32:34;6.60;;;2.00;;
3189;SDS011;1606;51.946;10.558;2023-07-29T14:35:12;7.70;;;2.63;;
3189;SDS011;1606;51.946;10.558;2023-07-29T14:37:40;7.40;;;2.07;;
3189;SDS011;1606;51.946;10.558;2023-07-29T14:40:21;5.27;;;1.67;;
3189;SDS011;1606;51.946;10.558;2023-07-29T14:42:53;6.63;;;1.80;;
3189;SDS011;1606;51.946;10.558;2023-07-29T14:45:24;6.00;;;1.60;;
3189;SDS011;1606;51.946;10.558;2023-07-29T14:47:55;5.63;;;1.60;;
3189;SDS011;1606;51.946;10.558;2023-07-29T14:50:24;5.30;;;1.53;;
3189;SDS011;1606;51.946;10.558;2023-07-29T14:52:57;6.00;;;1.80;;
3189;SDS011;1606;51.946;10.558;2023-07-29T14:55:29;5.60;;;1.20;;
3189;SDS011;1606;51.946;10.558;2023-07-29T14:57:59;5.83;;;1.57;;
3189;SDS011;1606;51.946;10.558;2023-07-29T15:00:38;5.63;;;1.60;;
3189;SDS011;1606;51.946;10.558;2023-07-29T15:03:09;5.90;;;1.70;;
3189;SDS011;1606;51.946;10.558;2023-07-29T15:05:39;5.40;;;1.60;;
3189;SDS011;1606;51.946;10.558;2023-07-29T15:08:12;5.80;;;1.70;;
3189;SDS011;1606;51.946;10.558;2023-07-29T15:10:45;5.17;;;1.50;;
3189;SDS011;1606;51.946;10.558;2023-07-29T15:13:20;6.00;;;1.83;;
3189;SDS011;1606;51.946;10.558;2023-07-29T15:15:55;6.20;;;1.80;;
3189;SDS011;1606;51.946;10.558;2023-07-29T15:18:34;5.97;;;1.83;;
3189;SDS011;1606;51.946;10.558;2023-07-29T15:21:03;6.10;;;1.77;;
3189;SDS011;1606;51.946;10.558;2023-07-29T15:23:38;6.53;;;1.60;;
3189;SDS011;1606;51.946;10.558;2023-07-29T15:26:10;4.80;;;1.30;;
3189;SDS011;1606;51.946;10.558;2023-07-29T15:28:42;5.80;;;1.70;;
3189;SDS011;1606;51.946;10.558;2023-07-29T15:31:13;6.57;;;1.77;;
3189;SDS011;1606;51.946;10.558;2023-07-29T15:33:44;7.93;;;2.20;;
3189;SDS011;1606;51.946;10.558;2023-07-29T15:36:16;5.30;;;1.60;;
3189;SDS011;1606;51.946;10.558;2023-07-29T15:38:55;5.63;;;2.10;;
3189;SDS011;1606;51.946;10.558;2023-07-29T15:41:26;7.20;;;1.70;;